Time;durP1;ratioP1;P1;durP2;ratioP2;P2;SDS_P1;SDS_P2;PMS_P1;PMS_P2;Temp;Humidity;BMP_temperature;BMP_pressure;BME280_temperature;BME280_humidity;BME280_pressure;Samples;Min_cycle;Max_cycle;Signal;HPM_P1;HPM_P2
2021/06/29 00:01:46;;;;;;;5.18;4.30;;;;;;;;;;5044062;28;20092;-66
2021/06/29 00:04:12;;;;;;;8.48;4.43;;;;;;;;;;5052016;28;20435;-66
2021/06/29 00:06:37;;;;;;;5.83;4.13;;;;;;;;;;5051816;28;20032;-66
2021/06/29 00:09:02;;;;;;;7.87;4.07;;;;;;;;;;5052384;28;20588;-66
2021/06/29 00:11:27;;;;;;;10.00;4.07;;;;;;;;;;5051678;28;20457;-66
2021/06/29 00:13:53;;;;;;;6.70;4.27;;;;;;;;;;5052066;28;20104;-66
2021/06/29 00:16:18;;;;;;;9.85;4.53;;;;;;;;;;5050345;28;20267;-65
2021/06/29 00:18:44;;;;;;;8.07;4.28;;;;;;;;;;5051382;28;20044;-66
2021/06/29 00:21:09;;;;;;;6.53;4.20;;;;;;;;;;5052164;28;20380;-65
2021/06/29 00:23:38;;;;;;;10.38;3.97;;;;;;;;;;5051201;28;20108;-65
2021/06/29 00:26:04;;;;;;;4.90;4.05;;;;;;;;;;5031766;28;20466;-65
2021/06/29 00:28:29;;;;;;;8.70;4.40;;;;;;;;;;5031726;28;20095;-65
2021/06/29 00:30:55;;;;;;;10.35;3.95;;;;;;;;;;5042685;28;20499;-65
2021/06/29 00:33:20;;;;;;;12.52;4.22;;;;;;;;;;5051513;28;20105;-65
2021/06/29 00:35:45;;;;;;;6.73;4.00;;;;;;;;;;5051479;28;20096;-65
2021/06/29 00:38:10;;;;;;;8.90;5.43;;;;;;;;;;5051536;28;20659;-66
2021/06/29 00:40:35;;;;;;;7.10;3.70;;;;;;;;;;5050946;28;20275;-65
2021/06/29 00:43:00;;;;;;;7.45;4.68;;;;;;;;;;5051359;28;20299;-65
2021/06/29 00:45:26;;;;;;;6.07;4.67;;;;;;;;;;5050794;28;20025;-65
2021/06/29 00:47:51;;;;;;;9.35;4.30;;;;;;;;;;5051442;28;20746;-65
2021/06/29 00:50:16;;;;;;;7.77;4.50;;;;;;;;;;5051163;28;20534;-63
2021/06/29 00:52:41;;;;;;;9.63;5.63;;;;;;;;;;5051312;28;20283;-63
2021/06/29 00:55:10;;;;;;;7.65;4.78;;;;;;;;;;5051024;28;20461;-65
2021/06/29 00:57:36;;;;;;;10.18;5.53;;;;;;;;;;5050656;28;20064;-65
2021/06/29 01:00:03;;;;;;;8.50;5.43;;;;;;;;;;5050477;28;20056;-65
2021/06/29 01:02:28;;;;;;;7.15;5.10;;;;;;;;;;5051018;28;20405;-65
2021/06/29 01:04:53;;;;;;;8.47;5.37;;;;;;;;;;5050504;28;20021;-65
2021/06/29 01:07:18;;;;;;;7.32;5.30;;;;;;;;;;5051287;28;20252;-65
2021/06/29 01:09:44;;;;;;;6.10;4.60;;;;;;;;;;5050961;28;20024;-65
2021/06/29 01:12:09;;;;;;;7.80;5.05;;;;;;;;;;5050333;28;20392;-64
2021/06/29 01:14:35;;;;;;;7.32;5.65;;;;;;;;;;5050332;28;20033;-65
2021/06/29 01:17:03;;;;;;;8.80;4.78;;;;;;;;;;5050878;28;20433;-65
2021/06/29 01:19:48;;;;;;;10.30;5.57;;;;;;;;;;5050684;28;20017;-65
2021/06/29 01:22:14;;;;;;;11.15;5.18;;;;;;;;;;5050826;28;20016;-65
2021/06/29 01:24:42;;;;;;;6.60;3.15;;;;;;;;;;5050631;28;20029;-64
2021/06/29 01:32:21;;;;;;;7.13;4.85;;;;;;;;;;5036861;28;20167;-65
2021/06/29 01:34:47;;;;;;;6.93;5.53;;;;;;;;;;5050595;28;20547;-64
2021/06/29 01:37:12;;;;;;;8.63;5.20;;;;;;;;;;5050587;28;20025;-65
2021/06/29 01:39:48;;;;;;;8.60;5.53;;;;;;;;;;5050434;28;20020;-65
2021/06/29 01:42:13;;;;;;;7.50;5.30;;;;;;;;;;5050304;28;20028;-65
2021/06/29 01:44:39;;;;;;;12.85;5.53;;;;;;;;;;5050176;28;20021;-65
2021/06/29 01:47:06;;;;;;;7.82;5.15;;;;;;;;;;5050068;28;20039;-65
2021/06/29 01:49:31;;;;;;;7.20;4.72;;;;;;;;;;5049943;28;20037;-65
2021/06/29 01:51:57;;;;;;;8.87;5.47;;;;;;;;;;5050486;28;20025;-65
2021/06/29 01:54:22;;;;;;;7.78;5.32;;;;;;;;;;5050210;28;20319;-65
2021/06/29 01:56:48;;;;;;;9.13;5.07;;;;;;;;;;5050140;28;20066;-65
2021/06/29 01:59:17;;;;;;;11.85;5.57;;;;;;;;;;5050232;28;20045;-65
2021/06/29 02:01:43;;;;;;;7.53;5.57;;;;;;;;;;5050221;28;20377;-65
2021/06/29 02:04:09;;;;;;;12.90;5.72;;;;;;;;;;5050246;28;20024;-65
2021/06/29 02:06:34;;;;;;;8.02;6.03;;;;;;;;;;5049659;28;20021;-65
2021/06/29 02:08:59;;;;;;;7.07;5.40;;;;;;;;;;5050247;28;20027;-65
2021/06/29 02:11:24;;;;;;;6.47;5.40;;;;;;;;;;5049588;28;20637;-65
2021/06/29 02:13:49;;;;;;;8.88;6.00;;;;;;;;;;5048681;28;20327;-65
2021/06/29 02:16:15;;;;;;;9.60;5.68;;;;;;;;;;5051552;28;20047;-65
2021/06/29 02:18:40;;;;;;;9.82;5.43;;;;;;;;;;5053847;28;20021;-65
2021/06/29 02:21:06;;;;;;;10.45;5.90;;;;;;;;;;5054124;28;20013;-64
2021/06/29 02:23:31;;;;;;;8.45;5.18;;;;;;;;;;5054251;28;20032;-64
2021/06/29 02:25:57;;;;;;;7.38;4.95;;;;;;;;;;5053925;28;20454;-64
2021/06/29 02:28:22;;;;;;;14.07;5.53;;;;;;;;;;5053848;28;20021;-64
2021/06/29 02:30:47;;;;;;;6.22;5.20;;;;;;;;;;5053757;28;20620;-64
2021/06/29 02:33:12;;;;;;;7.00;5.57;;;;;;;;;;5053437;28;20033;-64
2021/06/29 02:35:38;;;;;;;12.83;5.40;;;;;;;;;;5053452;28;20013;-64
2021/06/29 02:38:03;;;;;;;10.55;5.63;;;;;;;;;;5053993;28;20616;-65
2021/06/29 02:40:28;;;;;;;8.35;5.75;;;;;;;;;;5053832;28;20044;-65
2021/06/29 02:42:54;;;;;;;10.63;5.65;;;;;;;;;;5054201;28;20021;-65
2021/06/29 02:45:21;;;;;;;12.52;5.88;;;;;;;;;;5053676;28;20021;-64
2021/06/29 02:47:46;;;;;;;5.88;5.25;;;;;;;;;;5053968;28;20036;-65
2021/06/29 02:50:12;;;;;;;8.43;5.63;;;;;;;;;;5053499;28;20016;-65
2021/06/29 02:52:37;;;;;;;7.10;5.75;;;;;;;;;;5053208;28;20105;-65
2021/06/29 02:55:04;;;;;;;8.80;6.30;;;;;;;;;;5052323;28;20143;-65
2021/06/29 02:57:29;;;;;;;9.35;5.90;;;;;;;;;;5053583;28;20652;-65
2021/06/29 02:59:55;;;;;;;10.63;6.45;;;;;;;;;;5053214;28;20025;-64
2021/06/29 03:02:20;;;;;;;17.73;6.18;;;;;;;;;;5053351;28;20013;-64
2021/06/29 03:04:45;;;;;;;10.77;6.40;;;;;;;;;;5053180;28;20079;-65
2021/06/29 03:07:10;;;;;;;10.45;6.30;;;;;;;;;;5053002;28;20263;-65
2021/06/29 03:09:35;;;;;;;7.03;5.83;;;;;;;;;;5052766;28;20037;-65
2021/06/29 03:12:01;;;;;;;9.57;6.60;;;;;;;;;;5052854;28;20299;-65
2021/06/29 03:14:26;;;;;;;10.90;6.28;;;;;;;;;;5053034;28;20048;-65
2021/06/29 03:16:52;;;;;;;12.60;6.53;;;;;;;;;;5052869;28;20051;-66
2021/06/29 03:19:18;;;;;;;10.93;6.53;;;;;;;;;;5052908;28;20029;-65
2021/06/29 03:21:43;;;;;;;10.45;6.45;;;;;;;;;;5053451;28;20032;-65
2021/06/29 03:24:08;;;;;;;8.48;6.10;;;;;;;;;;5052735;28;20033;-65
2021/06/29 03:26:34;;;;;;;11.18;6.45;;;;;;;;;;5052516;28;20092;-65
2021/06/29 03:28:59;;;;;;;9.07;6.65;;;;;;;;;;5051940;28;20362;-65
2021/06/29 03:31:24;;;;;;;9.43;5.90;;;;;;;;;;5052672;28;20163;-65
2021/06/29 03:33:49;;;;;;;11.73;7.40;;;;;;;;;;5052776;28;20072;-65
2021/06/29 03:36:14;;;;;;;12.47;6.73;;;;;;;;;;5052383;28;20264;-65
2021/06/29 03:38:40;;;;;;;11.27;6.45;;;;;;;;;;5052380;28;20263;-64
2021/06/29 03:41:05;;;;;;;12.10;6.70;;;;;;;;;;5052195;28;20017;-65
2021/06/29 03:43:34;;;;;;;8.32;6.97;;;;;;;;;;5052176;28;20547;-65
2021/06/29 03:45:59;;;;;;;13.20;7.47;;;;;;;;;;5052195;28;20025;-65
2021/06/29 03:48:25;;;;;;;9.23;6.63;;;;;;;;;;5052782;28;20036;-65
2021/06/29 03:50:50;;;;;;;10.50;6.27;;;;;;;;;;5052525;28;20535;-64
2021/06/29 03:53:15;;;;;;;12.60;7.47;;;;;;;;;;5051963;28;20809;-64
2021/06/29 03:55:40;;;;;;;13.23;6.60;;;;;;;;;;5052444;28;20251;-65
2021/06/29 03:58:08;;;;;;;11.17;7.70;;;;;;;;;;5051828;28;20325;-65
2021/06/29 04:00:33;;;;;;;15.07;8.27;;;;;;;;;;5051971;28;20358;-65
2021/06/29 04:02:59;;;;;;;12.83;7.17;;;;;;;;;;5052405;28;20105;-64
2021/06/29 04:05:24;;;;;;;13.17;6.63;;;;;;;;;;5051652;28;20267;-64
2021/06/29 04:07:49;;;;;;;10.87;7.53;;;;;;;;;;5052173;28;20643;-65
2021/06/29 04:10:15;;;;;;;13.55;9.13;;;;;;;;;;5052252;28;20298;-65
2021/06/29 04:12:40;;;;;;;18.17;9.85;;;;;;;;;;5052107;28;20075;-65
2021/06/29 04:15:06;;;;;;;15.60;7.18;;;;;;;;;;5051598;28;20016;-64
2021/06/29 04:17:32;;;;;;;12.02;7.47;;;;;;;;;;5051881;28;20499;-65
2021/06/29 04:19:57;;;;;;;7.70;5.80;;;;;;;;;;5051539;28;20024;-65
2021/06/29 04:22:22;;;;;;;9.98;5.57;;;;;;;;;;5051474;28;20333;-65
2021/06/29 04:24:47;;;;;;;19.77;8.33;;;;;;;;;;5051616;28;20104;-65
2021/06/29 04:27:13;;;;;;;10.45;6.15;;;;;;;;;;5051548;28;20259;-65
2021/06/29 04:29:38;;;;;;;17.92;6.68;;;;;;;;;;5051731;28;20025;-65
2021/06/29 04:32:03;;;;;;;12.87;6.97;;;;;;;;;;5049017;28;20024;-65
2021/06/29 04:34:29;;;;;;;15.80;6.95;;;;;;;;;;5056422;28;20311;-65
2021/06/29 04:36:54;;;;;;;17.95;7.03;;;;;;;;;;5051210;28;20029;-65
2021/06/29 04:39:19;;;;;;;12.93;6.68;;;;;;;;;;5050318;28;20021;-65
2021/06/29 04:41:44;;;;;;;11.57;6.20;;;;;;;;;;5051775;28;20028;-65
2021/06/29 04:44:09;;;;;;;12.17;6.90;;;;;;;;;;5051634;28;20723;-64
2021/06/29 04:46:35;;;;;;;12.88;7.43;;;;;;;;;;5051013;28;20275;-65
2021/06/29 04:49:00;;;;;;;9.50;6.43;;;;;;;;;;5051260;28;20029;-64
2021/06/29 04:51:25;;;;;;;17.67;7.97;;;;;;;;;;5051105;28;20508;-64
2021/06/29 04:53:50;;;;;;;13.43;7.78;;;;;;;;;;5050841;28;20025;-65
2021/06/29 04:56:18;;;;;;;15.83;8.80;;;;;;;;;;5049498;28;20035;-65
2021/06/29 04:58:50;;;;;;;14.10;8.82;;;;;;;;;;5048356;28;20283;-65
2021/06/29 05:01:15;;;;;;;15.52;8.70;;;;;;;;;;5047952;28;20555;-65
2021/06/29 05:03:40;;;;;;;20.23;8.75;;;;;;;;;;5047961;28;20028;-65
2021/06/29 05:06:06;;;;;;;15.70;9.13;;;;;;;;;;5048350;28;20060;-65
2021/06/29 05:08:31;;;;;;;15.55;9.55;;;;;;;;;;5048257;28;20052;-65
2021/06/29 05:10:57;;;;;;;19.20;10.40;;;;;;;;;;5046727;28;20017;-65
2021/06/29 05:13:22;;;;;;;26.73;13.02;;;;;;;;;;5048490;28;20017;-65
2021/06/29 05:15:47;;;;;;;23.80;14.63;;;;;;;;;;5047687;28;20086;-65
2021/06/29 05:18:12;;;;;;;17.93;10.30;;;;;;;;;;5048185;28;20033;-65
2021/06/29 05:20:37;;;;;;;16.90;10.23;;;;;;;;;;5048623;28;20248;-64
2021/06/29 05:23:03;;;;;;;22.83;10.10;;;;;;;;;;5047602;28;20771;-65
2021/06/29 05:25:29;;;;;;;26.73;10.15;;;;;;;;;;5043536;28;20012;-65
2021/06/29 05:27:54;;;;;;;28.17;11.18;;;;;;;;;;5048587;28;20429;-64
2021/06/29 05:30:19;;;;;;;20.87;12.07;;;;;;;;;;5048300;28;20025;-64
2021/06/29 05:32:44;;;;;;;23.52;10.93;;;;;;;;;;5047521;28;20068;-64
2021/06/29 05:35:10;;;;;;;17.70;10.13;;;;;;;;;;5049068;28;20350;-65
2021/06/29 05:37:35;;;;;;;16.63;9.52;;;;;;;;;;5048447;28;20268;-65
2021/06/29 05:40:00;;;;;;;18.93;10.70;;;;;;;;;;5048324;28;20086;-65
2021/06/29 05:42:25;;;;;;;18.27;11.48;;;;;;;;;;5049326;28;20256;-65
2021/06/29 05:44:51;;;;;;;23.73;10.80;;;;;;;;;;5046924;28;20039;-65
2021/06/29 05:47:20;;;;;;;16.57;9.00;;;;;;;;;;5045044;28;20032;-65
2021/06/29 05:49:46;;;;;;;14.90;9.40;;;;;;;;;;5047767;28;20838;-65
2021/06/29 05:52:11;;;;;;;27.58;10.07;;;;;;;;;;5047193;28;20108;-65
2021/06/29 05:54:36;;;;;;;16.47;8.20;;;;;;;;;;5047653;28;20576;-65
2021/06/29 05:57:01;;;;;;;11.40;7.87;;;;;;;;;;5045664;28;20356;-65
2021/06/29 05:59:26;;;;;;;9.75;7.00;;;;;;;;;;5044376;28;20275;-65
2021/06/29 06:01:53;;;;;;;11.17;6.40;;;;;;;;;;5045367;28;20025;-64
2021/06/29 06:04:18;;;;;;;8.52;4.93;;;;;;;;;;5047608;28;20260;-65
2021/06/29 06:06:43;;;;;;;6.95;4.15;;;;;;;;;;5047138;28;20024;-65
2021/06/29 06:09:08;;;;;;;9.37;4.30;;;;;;;;;;5046189;28;20025;-64
2021/06/29 06:11:34;;;;;;;7.30;4.00;;;;;;;;;;5047949;28;20566;-65
2021/06/29 06:13:59;;;;;;;6.30;3.50;;;;;;;;;;5047654;28;20025;-64
2021/06/29 06:16:24;;;;;;;6.97;2.70;;;;;;;;;;5047909;28;20112;-65
2021/06/29 06:18:50;;;;;;;7.00;3.50;;;;;;;;;;5049760;28;20252;-65
2021/06/29 06:21:15;;;;;;;3.60;3.10;;;;;;;;;;5050088;28;20020;-65
2021/06/29 06:23:40;;;;;;;8.03;3.10;;;;;;;;;;5050071;28;20032;-65
2021/06/29 06:26:05;;;;;;;7.03;3.47;;;;;;;;;;5049064;28;20640;-65
2021/06/29 06:28:30;;;;;;;8.77;3.50;;;;;;;;;;5049266;28;20786;-65
2021/06/29 06:30:55;;;;;;;7.93;3.33;;;;;;;;;;5049304;28;20271;-65
2021/06/29 06:33:21;;;;;;;7.78;3.80;;;;;;;;;;5050011;28;20025;-65
2021/06/29 06:35:46;;;;;;;10.20;3.42;;;;;;;;;;5049500;28;20045;-65
2021/06/29 06:38:12;;;;;;;12.27;4.22;;;;;;;;;;5049929;28;20430;-65
2021/06/29 06:40:37;;;;;;;11.00;4.13;;;;;;;;;;5049386;28;20025;-65
2021/06/29 06:43:02;;;;;;;11.13;4.23;;;;;;;;;;5049397;28;20314;-65
2021/06/29 06:45:27;;;;;;;13.48;3.95;;;;;;;;;;5049380;28;20263;-65
2021/06/29 06:47:53;;;;;;;6.72;3.38;;;;;;;;;;5049554;28;20328;-65
2021/06/29 06:50:18;;;;;;;7.38;3.30;;;;;;;;;;5049742;28;20027;-65
2021/06/29 06:52:43;;;;;;;7.72;3.60;;;;;;;;;;5049465;28;20086;-65
2021/06/29 06:55:09;;;;;;;15.77;4.20;;;;;;;;;;5048837;28;20021;-65
2021/06/29 06:57:34;;;;;;;6.38;3.28;;;;;;;;;;5049113;28;20029;-65
2021/06/29 06:59:59;;;;;;;12.57;3.05;;;;;;;;;;5049022;28;20481;-65
2021/06/29 07:02:25;;;;;;;5.67;2.87;;;;;;;;;;5049843;28;20020;-65
2021/06/29 07:04:50;;;;;;;8.13;3.85;;;;;;;;;;5052732;28;20266;-64
2021/06/29 07:07:15;;;;;;;3.57;2.43;;;;;;;;;;5053042;28;20048;-65
2021/06/29 07:09:41;;;;;;;6.57;2.67;;;;;;;;;;5052633;28;20044;-65
2021/06/29 07:12:06;;;;;;;8.60;2.73;;;;;;;;;;5052872;28;20056;-65
2021/06/29 07:14:31;;;;;;;7.35;2.90;;;;;;;;;;5053057;28;20290;-65
2021/06/29 07:16:57;;;;;;;5.38;2.92;;;;;;;;;;5052654;28;20392;-65
2021/06/29 07:19:22;;;;;;;4.10;1.90;;;;;;;;;;5051764;28;20017;-65
2021/06/29 07:21:47;;;;;;;11.53;2.60;;;;;;;;;;5052220;28;20643;-64
2021/06/29 07:24:12;;;;;;;4.97;2.03;;;;;;;;;;5052416;28;20751;-64
2021/06/29 07:26:37;;;;;;;10.87;3.27;;;;;;;;;;5052680;28;20267;-65
2021/06/29 07:29:03;;;;;;;6.55;2.63;;;;;;;;;;5052856;28;20309;-65
2021/06/29 07:31:28;;;;;;;5.22;2.53;;;;;;;;;;5052675;28;20029;-65
2021/06/29 07:33:54;;;;;;;8.85;2.35;;;;;;;;;;5052788;28;20028;-65
2021/06/29 07:36:20;;;;;;;4.33;2.40;;;;;;;;;;5052577;28;20432;-65
2021/06/29 07:38:46;;;;;;;3.95;2.28;;;;;;;;;;5052530;28;20032;-65
2021/06/29 07:41:11;;;;;;;8.30;2.92;;;;;;;;;;5052771;28;20393;-65
2021/06/29 07:43:37;;;;;;;5.85;3.13;;;;;;;;;;5052602;28;20033;-68
2021/06/29 07:46:02;;;;;;;6.72;3.92;;;;;;;;;;5051854;28;20024;-65
2021/06/29 07:48:27;;;;;;;8.73;3.25;;;;;;;;;;5052257;28;20036;-65
2021/06/29 07:50:54;;;;;;;11.35;3.60;;;;;;;;;;5052613;28;20025;-65
2021/06/29 07:53:19;;;;;;;10.38;4.57;;;;;;;;;;5052437;28;20028;-65
2021/06/29 07:55:44;;;;;;;6.75;4.50;;;;;;;;;;5052030;28;20028;-65
2021/06/29 07:58:10;;;;;;;9.27;3.70;;;;;;;;;;5052294;28;20029;-65
2021/06/29 08:00:38;;;;;;;6.73;3.23;;;;;;;;;;5051884;28;20325;-65
2021/06/29 08:03:03;;;;;;;7.15;3.63;;;;;;;;;;5052152;28;20263;-65
2021/06/29 08:05:29;;;;;;;5.25;3.17;;;;;;;;;;5052195;28;20021;-65
2021/06/29 08:07:54;;;;;;;6.72;3.33;;;;;;;;;;5051589;28;20020;-65
2021/06/29 08:10:19;;;;;;;5.90;2.55;;;;;;;;;;5051842;28;20453;-65
2021/06/29 08:12:45;;;;;;;6.65;2.58;;;;;;;;;;5051940;28;20039;-65
2021/06/29 08:15:10;;;;;;;10.35;3.20;;;;;;;;;;5051535;28;20434;-65
2021/06/29 08:17:35;;;;;;;5.32;3.25;;;;;;;;;;5051941;28;20013;-65
2021/06/29 08:20:01;;;;;;;7.60;3.50;;;;;;;;;;5051873;28;20021;-65
2021/06/29 08:22:26;;;;;;;14.30;3.55;;;;;;;;;;5051712;28;20071;-65
2021/06/29 08:24:52;;;;;;;7.70;2.63;;;;;;;;;;5051077;28;20036;-65
2021/06/29 08:27:18;;;;;;;7.23;3.30;;;;;;;;;;5051905;28;20345;-65
2021/06/29 08:29:43;;;;;;;6.85;2.50;;;;;;;;;;5051315;28;20350;-65
2021/06/29 08:32:08;;;;;;;5.78;3.28;;;;;;;;;;5051764;28;20453;-65
2021/06/29 08:34:33;;;;;;;5.13;2.88;;;;;;;;;;5051518;28;20100;-65
2021/06/29 08:36:59;;;;;;;8.60;4.07;;;;;;;;;;5050997;28;20029;-64
2021/06/29 08:39:24;;;;;;;10.77;4.43;;;;;;;;;;5051372;28;20021;-65
2021/06/29 08:41:49;;;;;;;8.75;4.35;;;;;;;;;;5049836;28;20275;-65
2021/06/29 08:44:14;;;;;;;14.02;4.40;;;;;;;;;;5049989;28;20060;-66
2021/06/29 08:46:41;;;;;;;9.98;4.43;;;;;;;;;;5050301;28;20036;-65
2021/06/29 08:49:06;;;;;;;5.82;3.38;;;;;;;;;;5051560;28;20025;-65
2021/06/29 08:51:31;;;;;;;12.53;3.90;;;;;;;;;;5050289;28;20545;-65
2021/06/29 08:53:57;;;;;;;6.90;3.42;;;;;;;;;;5051221;28;20295;-65
2021/06/29 08:56:22;;;;;;;10.55;4.18;;;;;;;;;;5049539;28;20032;-65
2021/06/29 08:58:48;;;;;;;10.02;5.10;;;;;;;;;;5050770;28;20059;-65
2021/06/29 09:01:14;;;;;;;9.52;5.07;;;;;;;;;;5051009;28;20493;-65
2021/06/29 09:03:39;;;;;;;10.60;3.80;;;;;;;;;;5051111;28;20021;-65
2021/06/29 09:06:05;;;;;;;6.87;4.23;;;;;;;;;;5050793;28;20530;-66
2021/06/29 09:08:36;;;;;;;9.73;3.97;;;;;;;;;;5051035;28;20028;-65
2021/06/29 09:11:13;;;;;;;6.00;3.70;;;;;;;;;;5050357;28;20076;-65
2021/06/29 09:13:40;;;;;;;7.70;3.67;;;;;;;;;;5050291;28;20113;-65
2021/06/29 09:16:05;;;;;;;12.70;5.60;;;;;;;;;;5050782;28;20070;-66
2021/06/29 09:18:32;;;;;;;6.45;4.10;;;;;;;;;;5050901;28;20099;-65
2021/06/29 09:21:02;;;;;;;9.10;4.18;;;;;;;;;;5050491;28;20517;-65
2021/06/29 09:23:29;;;;;;;8.95;4.63;;;;;;;;;;5050585;28;20527;-65
2021/06/29 09:26:13;;;;;;;6.57;4.13;;;;;;;;;;5049607;28;20499;-65
2021/06/29 09:28:40;;;;;;;5.60;3.72;;;;;;;;;;5050555;28;20047;-65
2021/06/29 09:31:07;;;;;;;8.90;4.53;;;;;;;;;;5050992;28;20025;-66
2021/06/29 09:33:39;;;;;;;8.73;4.30;;;;;;;;;;5050019;28;20020;-65
2021/06/29 09:36:06;;;;;;;6.57;4.05;;;;;;;;;;5044773;28;20036;-65
2021/06/29 09:38:36;;;;;;;10.60;4.20;;;;;;;;;;5055963;28;20035;-65
2021/06/29 09:41:03;;;;;;;10.05;4.43;;;;;;;;;;5050820;28;20040;-65
2021/06/29 09:43:29;;;;;;;11.45;4.45;;;;;;;;;;5050805;28;20033;-65
2021/06/29 09:45:56;;;;;;;9.18;6.13;;;;;;;;;;5050610;28;20387;-65
2021/06/29 09:48:32;;;;;;;11.30;5.47;;;;;;;;;;5050633;28;20048;-65
2021/06/29 09:51:01;;;;;;;8.35;5.15;;;;;;;;;;5050017;28;20104;-65
2021/06/29 09:53:31;;;;;;;14.27;4.80;;;;;;;;;;5050295;28;20029;-65
2021/06/29 09:56:01;;;;;;;14.43;5.40;;;;;;;;;;5050079;28;20432;-65
2021/06/29 09:58:27;;;;;;;8.50;4.60;;;;;;;;;;5050384;28;20033;-65
2021/06/29 10:00:55;;;;;;;7.28;4.22;;;;;;;;;;5049842;28;20028;-65
2021/06/29 10:03:22;;;;;;;8.13;4.57;;;;;;;;;;5050578;28;20099;-65
2021/06/29 10:05:48;;;;;;;4.68;3.78;;;;;;;;;;5049835;28;20049;-65
2021/06/29 10:08:20;;;;;;;10.18;5.30;;;;;;;;;;5049886;28;20508;-65
2021/06/29 10:10:46;;;;;;;11.13;4.72;;;;;;;;;;5050226;28;20028;-65
2021/06/29 10:13:17;;;;;;;6.80;4.83;;;;;;;;;;5050363;28;20029;-65
2021/06/29 10:15:43;;;;;;;13.65;5.00;;;;;;;;;;5049875;28;20307;-65
2021/06/29 10:18:09;;;;;;;10.95;4.85;;;;;;;;;;5050467;28;20052;-65
2021/06/29 10:20:49;;;;;;;10.00;4.35;;;;;;;;;;5050002;28;20013;-65
2021/06/29 10:23:16;;;;;;;9.43;4.80;;;;;;;;;;5050393;28;20477;-65
2021/06/29 10:25:41;;;;;;;10.73;4.55;;;;;;;;;;5030185;28;20029;-64
2021/06/29 10:28:07;;;;;;;10.93;4.63;;;;;;;;;;5045852;28;20055;-65
2021/06/29 10:30:32;;;;;;;8.70;4.43;;;;;;;;;;5050243;28;20017;-65
2021/06/29 10:32:57;;;;;;;7.30;4.18;;;;;;;;;;5049964;28;20025;-65
2021/06/29 10:35:23;;;;;;;11.33;4.73;;;;;;;;;;5049760;28;20101;-65
2021/06/29 10:37:48;;;;;;;9.80;4.70;;;;;;;;;;5050915;28;20331;-65
2021/06/29 10:40:14;;;;;;;7.45;5.13;;;;;;;;;;5065855;28;20021;-65
2021/06/29 10:42:42;;;;;;;10.70;6.20;;;;;;;;;;5055926;28;20100;-65
2021/06/29 10:45:12;;;;;;;10.82;5.63;;;;;;;;;;5053447;28;20029;-65
2021/06/29 10:47:38;;;;;;;10.50;5.50;;;;;;;;;;5053698;28;20021;-66
2021/06/29 10:50:07;;;;;;;9.45;6.22;;;;;;;;;;5053845;28;20029;-65
2021/06/29 10:52:34;;;;;;;10.13;6.63;;;;;;;;;;5053642;28;20494;-66
2021/06/29 10:55:00;;;;;;;16.55;5.80;;;;;;;;;;5053394;28;20048;-65
2021/06/29 10:57:42;;;;;;;6.35;4.80;;;;;;;;;;5053512;28;20025;-65
2021/06/29 11:00:16;;;;;;;9.30;5.05;;;;;;;;;;5052769;28;20544;-65
2021/06/29 11:02:42;;;;;;;9.93;5.47;;;;;;;;;;5053085;28;20104;-65
2021/06/29 11:05:08;;;;;;;6.75;4.63;;;;;;;;;;5053407;28;20017;-65
2021/06/29 11:07:41;;;;;;;9.10;5.55;;;;;;;;;;5052153;28;20029;-65
2021/06/29 11:10:09;;;;;;;10.43;5.30;;;;;;;;;;5053434;28;20021;-65
2021/06/29 11:12:35;;;;;;;8.20;5.78;;;;;;;;;;5053511;28;20025;-65
2021/06/29 11:15:02;;;;;;;8.85;5.57;;;;;;;;;;5052908;28;20052;-65
2021/06/29 11:18:01;;;;;;;13.05;5.57;;;;;;;;;;5053598;28;20111;-65
2021/06/29 11:20:36;;;;;;;12.07;4.45;;;;;;;;;;5019920;28;20029;-68
2021/06/29 11:23:05;;;;;;;9.23;4.88;;;;;;;;;;5053213;28;20032;-65
2021/06/29 11:25:45;;;;;;;9.97;5.20;;;;;;;;;;5053022;28;20050;-65
2021/06/29 11:28:14;;;;;;;11.85;4.85;;;;;;;;;;5052698;28;20024;-66
2021/06/29 11:30:59;;;;;;;10.55;4.88;;;;;;;;;;5033170;28;20036;-66
2021/06/29 11:33:42;;;;;;;9.77;5.75;;;;;;;;;;5033083;28;20021;-66
2021/06/29 11:36:32;;;;;;;7.80;4.78;;;;;;;;;;5042963;28;20049;-66
2021/06/29 11:39:22;;;;;;;7.00;4.60;;;;;;;;;;5032777;28;20021;-66
2021/06/29 11:41:51;;;;;;;7.95;5.55;;;;;;;;;;5051235;28;20499;-66
2021/06/29 11:44:17;;;;;;;8.48;5.25;;;;;;;;;;5052458;28;20036;-66
2021/06/29 11:46:56;;;;;;;6.18;4.43;;;;;;;;;;5052372;28;20028;-65
2021/06/29 11:49:30;;;;;;;5.33;4.60;;;;;;;;;;5051944;28;20093;-66
2021/06/29 11:51:56;;;;;;;6.93;4.43;;;;;;;;;;5052556;28;20163;-65
2021/06/29 11:54:38;;;;;;;8.63;5.03;;;;;;;;;;5052227;28;20020;-66
2021/06/29 11:57:22;;;;;;;5.85;4.47;;;;;;;;;;5051775;28;20055;-66
2021/06/29 11:59:51;;;;;;;8.40;5.25;;;;;;;;;;5045469;28;20045;-66
2021/06/29 12:02:21;;;;;;;10.43;4.73;;;;;;;;;;5052574;28;20096;-66
2021/06/29 12:04:55;;;;;;;6.32;4.07;;;;;;;;;;5052280;28;20115;-66
2021/06/29 12:07:34;;;;;;;10.50;5.22;;;;;;;;;;5052235;28;20025;-66
2021/06/29 12:10:00;;;;;;;6.85;4.70;;;;;;;;;;5051679;28;20027;-66
2021/06/29 12:12:27;;;;;;;5.85;4.30;;;;;;;;;;5052029;28;20112;-65
2021/06/29 12:14:59;;;;;;;8.43;3.97;;;;;;;;;;5051841;28;20104;-66
2021/06/29 12:17:25;;;;;;;7.43;4.25;;;;;;;;;;5052209;28;20021;-66
2021/06/29 12:20:05;;;;;;;7.15;3.92;;;;;;;;;;5052213;28;20497;-66
2021/06/29 12:22:31;;;;;;;5.53;3.58;;;;;;;;;;5051800;28;20028;-65
2021/06/29 12:24:57;;;;;;;4.93;3.88;;;;;;;;;;5051249;28;20100;-66
2021/06/29 12:27:22;;;;;;;6.45;4.22;;;;;;;;;;5051699;28;20105;-66
2021/06/29 12:29:47;;;;;;;6.85;4.65;;;;;;;;;;5051982;28;20032;-65
2021/06/29 12:32:13;;;;;;;8.30;3.90;;;;;;;;;;5051613;28;20025;-66
2021/06/29 12:34:38;;;;;;;5.30;3.53;;;;;;;;;;5051400;28;20028;-66
2021/06/29 12:37:04;;;;;;;5.90;4.40;;;;;;;;;;5051147;28;20099;-66
2021/06/29 12:39:29;;;;;;;7.10;4.88;;;;;;;;;;5051305;28;20013;-65
2021/06/29 12:41:54;;;;;;;4.90;4.30;;;;;;;;;;5051602;28;20024;-66
2021/06/29 12:44:19;;;;;;;14.80;5.43;;;;;;;;;;5051487;28;20013;-66
2021/06/29 12:46:45;;;;;;;7.50;5.67;;;;;;;;;;5051381;28;20394;-66
2021/06/29 12:49:19;;;;;;;8.57;5.80;;;;;;;;;;5051359;28;20021;-65
2021/06/29 12:52:04;;;;;;;12.65;4.68;;;;;;;;;;5051586;28;20052;-66
2021/06/29 12:54:30;;;;;;;8.07;5.75;;;;;;;;;;5050473;28;20028;-66
2021/06/29 12:56:56;;;;;;;6.70;4.47;;;;;;;;;;5051031;28;20070;-66
2021/06/29 12:59:25;;;;;;;12.27;4.90;;;;;;;;;;5050697;28;20043;-66
2021/06/29 13:01:55;;;;;;;7.90;5.55;;;;;;;;;;5050210;28;20021;-65
2021/06/29 13:04:23;;;;;;;7.28;4.82;;;;;;;;;;5050653;28;20478;-66
2021/06/29 13:06:59;;;;;;;9.50;6.00;;;;;;;;;;5050613;28;20489;-66
2021/06/29 13:09:30;;;;;;;8.35;5.18;;;;;;;;;;5047247;28;20033;-65
2021/06/29 13:11:55;;;;;;;;;;;;;;;;;;5051231;28;20055;-66
2021/06/29 13:14:20;;;;;;;9.60;6.15;;;;;;;;;;5050451;28;19955;-66
2021/06/29 13:16:45;;;;;;;12.70;6.45;;;;;;;;;;5050519;28;20017;-66
2021/06/29 13:19:21;;;;;;;9.27;5.77;;;;;;;;;;5050533;28;20017;-66
2021/06/29 13:21:57;;;;;;;11.95;7.22;;;;;;;;;;5050564;28;20363;-66
2021/06/29 13:24:23;;;;;;;9.82;5.95;;;;;;;;;;5050312;28;20444;-66
2021/06/29 13:26:51;;;;;;;8.52;5.95;;;;;;;;;;5050169;28;20104;-65
2021/06/29 13:29:20;;;;;;;10.77;5.47;;;;;;;;;;5050329;28;20032;-66
2021/06/29 13:31:45;;;;;;;7.55;5.95;;;;;;;;;;5049055;28;20072;-65
2021/06/29 13:34:21;;;;;;;7.00;5.18;;;;;;;;;;5050169;28;20457;-66
2021/06/29 13:36:46;;;;;;;7.00;5.07;;;;;;;;;;5038152;28;20013;-66
2021/06/29 13:39:21;;;;;;;9.65;5.25;;;;;;;;;;5049983;28;20017;-65
2021/06/29 13:41:47;;;;;;;7.25;5.45;;;;;;;;;;5030554;28;20045;-66
2021/06/29 13:44:13;;;;;;;7.10;5.50;;;;;;;;;;5043362;28;20444;-66
2021/06/29 13:46:38;;;;;;;10.13;5.32;;;;;;;;;;5041153;28;20508;-66
2021/06/29 13:49:17;;;;;;;7.00;4.68;;;;;;;;;;5050034;28;20044;-65
2021/06/29 13:51:42;;;;;;;9.45;5.05;;;;;;;;;;5046352;28;20105;-66
2021/06/29 13:54:37;;;;;;;9.52;4.80;;;;;;;;;;5044087;28;20120;-65
2021/06/29 13:57:02;;;;;;;7.85;5.30;;;;;;;;;;5035952;28;20444;-66
2021/06/29 13:59:28;;;;;;;8.82;4.97;;;;;;;;;;5045142;28;20022;-66
2021/06/29 14:01:54;;;;;;;6.30;4.90;;;;;;;;;;5036685;28;20386;-66
2021/06/29 14:04:19;;;;;;;5.97;4.78;;;;;;;;;;5050228;28;20032;-66
2021/06/29 14:06:44;;;;;;;8.97;5.07;;;;;;;;;;5049572;28;20486;-66
2021/06/29 14:09:10;;;;;;;7.70;4.72;;;;;;;;;;5049689;28;20032;-66
2021/06/29 14:11:37;;;;;;;8.57;5.40;;;;;;;;;;5050910;28;20028;-66
2021/06/29 14:14:02;;;;;;;8.27;4.20;;;;;;;;;;5053718;28;20057;-66
2021/06/29 14:16:28;;;;;;;7.65;4.43;;;;;;;;;;5053785;28;20056;-66
2021/06/29 14:18:54;;;;;;;7.90;4.30;;;;;;;;;;5053916;28;20017;-66
2021/06/29 14:21:20;;;;;;;11.20;4.40;;;;;;;;;;5054055;28;20017;-66
2021/06/29 14:23:47;;;;;;;8.48;4.20;;;;;;;;;;5052577;28;20107;-66
2021/06/29 14:26:13;;;;;;;4.45;4.03;;;;;;;;;;5053656;28;20035;-66
2021/06/29 14:28:38;;;;;;;9.82;4.40;;;;;;;;;;5053498;28;20041;-66
2021/06/29 14:31:04;;;;;;;7.43;4.65;;;;;;;;;;5053628;28;20021;-67
2021/06/29 14:33:29;;;;;;;7.18;4.00;;;;;;;;;;5053617;28;20025;-66
2021/06/29 14:35:55;;;;;;;5.32;3.35;;;;;;;;;;5053630;28;20665;-66
2021/06/29 14:38:20;;;;;;;7.97;3.15;;;;;;;;;;5053400;28;20028;-66
2021/06/29 14:40:45;;;;;;;5.90;3.53;;;;;;;;;;5053828;28;20024;-66
2021/06/29 14:43:11;;;;;;;5.95;3.60;;;;;;;;;;5051956;28;20072;-66